Time;durP1;ratioP1;P1;durP2;ratioP2;P2;SDS_P1;SDS_P2;PMS_P1;PMS_P2;Temp;Humidity;BMP_temperature;BMP_pressure;BME280_temperature;BME280_humidity;BME280_pressure;Samples;Min_cycle;Max_cycle;Signal;HPM_P1;HPM_P2
2023/03/27 00:00:49;;;;;;;5.83;5.00;;;;;;;11.70;35.87;93905.31;4971303;28;20227;-69
2023/03/27 00:03:16;;;;;;;4.93;4.43;;;;;;;11.89;34.69;93907.41;4971401;28;20232;-69
2023/03/27 00:05:43;;;;;;;5.25;4.53;;;;;;;12.03;34.33;93889.91;5000922;28;20184;-69
2023/03/27 00:08:09;;;;;;;9.52;5.05;;;;;;;12.10;34.96;93893.38;4972145;28;20181;-67
2023/03/27 00:10:35;;;;;;;6.05;5.07;;;;;;;12.10;34.84;93885.47;5000153;28;20243;-67
2023/03/27 00:13:04;;;;;;;6.15;4.40;;;;;;;12.05;34.73;93894.97;4968320;28;20260;-67
2023/03/27 00:15:31;;;;;;;7.45;4.80;;;;;;;12.09;34.63;93888.31;4965692;28;20231;-67
2023/03/27 00:18:02;;;;;;;7.03;5.05;;;;;;;11.89;35.47;93899.50;4971361;28;20236;-67
2023/03/27 00:20:30;;;;;;;9.18;6.22;;;;;;;11.81;35.69;93898.75;4969870;28;20235;-67
2023/03/27 00:22:56;;;;;;;6.78;6.03;;;;;;;11.92;35.51;93893.00;4972835;28;20192;-67
2023/03/27 00:25:23;;;;;;;6.85;5.65;;;;;;;11.90;35.75;93889.75;4971218;28;20244;-67
2023/03/27 00:27:49;;;;;;;5.88;5.13;;;;;;;12.01;35.42;93905.06;4985080;28;20231;-68
2023/03/27 00:30:15;;;;;;;7.85;5.85;;;;;;;12.11;35.38;93873.16;4970548;28;20236;-70
2023/03/27 00:32:41;;;;;;;7.97;6.00;;;;;;;11.82;36.29;93876.69;4997898;28;20238;-70
2023/03/27 00:35:08;;;;;;;7.18;5.75;;;;;;;11.96;36.05;93885.56;4972034;28;20316;-71
2023/03/27 00:37:35;;;;;;;8.77;5.63;;;;;;;11.78;36.08;93888.59;4970320;28;20228;-70
2023/03/27 00:40:00;;;;;;;7.80;5.33;;;;;;;11.65;35.74;93881.34;4966741;28;20346;-65
2023/03/27 00:42:26;;;;;;;6.88;5.65;;;;;;;11.84;35.56;93878.13;4967488;28;20295;-65
2023/03/27 00:44:52;;;;;;;9.05;5.03;;;;;;;11.93;35.46;93885.94;4970675;28;20270;-66
2023/03/27 00:47:31;;;;;;;8.77;5.65;;;;;;;11.85;35.38;93853.41;4968403;28;20181;-70
2023/03/27 00:49:59;;;;;;;6.43;4.93;;;;;;;11.95;35.33;93862.84;4963457;28;20243;-70
2023/03/27 00:52:28;;;;;;;5.40;4.90;;;;;;;12.08;35.46;93870.88;4968229;28;20303;-71
2023/03/27 00:54:55;;;;;;;7.97;5.63;;;;;;;11.47;36.55;93858.09;4968782;28;20233;-69
2023/03/27 00:57:22;;;;;;;9.18;6.07;;;;;;;11.73;36.07;93851.47;4953869;28;20240;-63
2023/03/27 00:59:51;;;;;;;7.28;5.43;;;;;;;11.83;36.34;93844.88;4983633;28;20331;-70
2023/03/27 01:02:18;;;;;;;7.32;5.68;;;;;;;11.87;36.33;93825.09;4997548;28;20212;-63
2023/03/27 01:04:44;;;;;;;9.00;5.23;;;;;;;11.87;36.24;93850.63;4994662;28;20229;-63
2023/03/27 01:07:11;;;;;;;6.30;5.03;;;;;;;11.66;36.43;93812.72;4970849;28;20302;-65
2023/03/27 01:09:37;;;;;;;6.15;4.93;;;;;;;11.58;36.62;93804.13;4998727;28;20238;-68
2023/03/27 01:12:44;;;;;;;7.70;5.65;;;;;;;11.24;37.62;93848.50;4969725;28;20263;-62
2023/03/27 01:15:35;;;;;;;10.63;6.80;;;;;;;11.50;36.88;93823.50;4953570;28;20338;-64
2023/03/27 01:18:39;;;;;;;8.70;6.20;;;;;;;11.22;37.46;93829.44;4967379;28;20254;-65
2023/03/27 01:21:46;;;;;;;8.27;5.53;;;;;;;11.50;36.57;93814.78;4968185;28;20326;-65
2023/03/27 01:24:19;;;;;;;8.00;5.88;;;;;;;11.58;36.39;93810.22;4956389;28;20552;-65
2023/03/27 01:27:01;;;;;;;7.57;5.68;;;;;;;11.61;36.29;93804.56;4971532;28;20603;-65
2023/03/27 01:29:57;;;;;;;8.70;6.07;;;;;;;11.64;36.53;93819.16;4961452;28;20204;-65
2023/03/27 01:32:34;;;;;;;9.20;6.70;;;;;;;11.23;37.65;93817.13;4971515;28;20235;-65
2023/03/27 01:35:23;;;;;;;10.73;7.13;;;;;;;11.45;36.98;93810.88;4950525;28;20310;-70
2023/03/27 01:38:16;;;;;;;6.78;5.70;;;;;;;11.42;37.38;93800.72;4968580;28;20238;-71
2023/03/27 01:41:17;;;;;;;6.88;6.18;;;;;;;11.50;37.43;93812.16;4952500;28;20259;-71
2023/03/27 01:43:52;;;;;;;8.43;6.38;;;;;;;11.54;37.37;93805.50;4966468;28;20235;-65
2023/03/27 01:46:25;;;;;;;8.73;6.47;;;;;;;11.57;37.04;93794.59;4952394;28;20235;-65
2023/03/27 01:48:56;;;;;;;7.22;6.22;;;;;;;11.65;36.89;93797.09;4952250;28;20228;-66
2023/03/27 01:51:31;;;;;;;9.18;7.13;;;;;;;11.17;38.06;93781.84;4955124;28;20248;-66
2023/03/27 01:54:10;;;;;;;8.83;7.27;;;;;;;10.87;38.77;93782.88;4951485;28;20216;-66
2023/03/27 01:56:41;;;;;;;11.20;7.87;;;;;;;10.99;38.38;93782.25;4934857;28;20193;-64
2023/03/27 01:59:12;;;;;;;8.93;7.53;;;;;;;11.09;38.52;93770.59;4936707;28;20298;-65
2023/03/27 02:01:42;;;;;;;11.40;7.40;;;;;;;11.26;38.34;93780.72;4934583;28;20232;-65
2023/03/27 02:04:16;;;;;;;9.47;7.00;;;;;;;11.35;37.91;93791.94;4953317;28;20304;-65
2023/03/27 02:06:48;;;;;;;9.68;8.43;;;;;;;11.32;38.05;93789.69;4923790;28;20228;-70
2023/03/27 02:09:32;;;;;;;10.35;7.97;;;;;;;11.23;38.60;93785.56;4921785;28;20224;-63
2023/03/27 02:11:57;;;;;;;11.02;7.88;;;;;;;11.33;38.49;93769.44;4928870;28;20228;-63
2023/03/27 02:14:27;;;;;;;10.73;7.60;;;;;;;11.25;38.61;93787.00;4928118;29;20202;-63
2023/03/27 02:16:59;;;;;;;11.45;8.05;;;;;;;11.28;38.35;93762.13;4965195;28;20220;-68
2023/03/27 02:19:39;;;;;;;10.80;8.43;;;;;;;11.19;38.88;93752.69;4932429;28;20284;-65
2023/03/27 02:22:05;;;;;;;10.27;7.72;;;;;;;11.17;38.92;93765.22;4931909;28;20245;-67
2023/03/27 02:24:30;;;;;;;9.85;8.02;;;;;;;10.78;39.53;93758.53;4931344;28;20242;-63
2023/03/27 02:27:11;;;;;;;9.43;7.47;;;;;;;10.73;39.45;93732.78;4922866;28;20293;-68
2023/03/27 02:29:47;;;;;;;12.00;8.50;;;;;;;10.86;39.79;93760.22;4947577;28;20213;-71
2023/03/27 02:32:15;;;;;;;11.10;7.47;;;;;;;10.72;40.20;93752.19;4934403;29;20197;-69
2023/03/27 02:35:01;;;;;;;9.77;7.90;;;;;;;10.64;39.92;93736.50;4927977;28;20236;-69
2023/03/27 02:37:55;;;;;;;10.82;7.93;;;;;;;10.86;39.95;93736.56;4930111;28;20217;-67
2023/03/27 02:40:21;;;;;;;9.10;8.00;;;;;;;10.78;40.18;93726.97;4924901;28;20234;-68
2023/03/27 02:43:21;;;;;;;10.38;7.82;;;;;;;10.83;40.37;93716.72;4932825;28;21007;-70
2023/03/27 02:45:53;;;;;;;10.32;8.20;;;;;;;10.63;40.73;93716.47;4933238;28;20248;-65
2023/03/27 02:48:38;;;;;;;10.20;7.78;;;;;;;10.69;40.54;93705.22;4930768;28;20235;-66
2023/03/27 02:51:13;;;;;;;8.65;7.47;;;;;;;10.77;40.26;93697.22;4956269;28;20236;-65
2023/03/27 02:53:46;;;;;;;9.00;7.10;;;;;;;10.82;39.67;93680.88;4965875;28;20205;-66
2023/03/27 02:56:14;;;;;;;10.15;7.45;;;;;;;10.67;40.41;93680.94;4963975;28;20192;-65
2023/03/27 02:58:56;;;;;;;10.07;8.18;;;;;;;10.61;40.95;93679.03;4996037;28;20223;-68
2023/03/27 03:01:25;;;;;;;10.10;8.20;;;;;;;10.56;40.05;93682.22;4968339;28;20239;-68
2023/03/27 03:03:59;;;;;;;14.05;8.65;;;;;;;10.64;40.24;93677.84;4973495;28;20235;-68
2023/03/27 03:06:30;;;;;;;10.67;7.77;;;;;;;10.56;41.08;93692.75;4965145;28;20232;-69
2023/03/27 03:09:06;;;;;;;9.63;7.60;;;;;;;10.40;41.13;93664.03;4970379;28;20221;-69
2023/03/27 03:11:37;;;;;;;12.27;7.80;;;;;;;10.47;40.88;93658.84;4972193;28;21074;-68
2023/03/27 03:14:02;;;;;;;15.60;8.73;;;;;;;10.38;41.70;93655.53;4984133;28;20271;-69
2023/03/27 03:16:29;;;;;;;10.88;8.18;;;;;;;10.18;41.98;93662.31;5002935;28;20232;-69
2023/03/27 03:18:55;;;;;;;14.57;8.00;;;;;;;10.17;41.78;93650.97;4969484;28;20232;-68
2023/03/27 03:21:21;;;;;;;12.10;8.00;;;;;;;10.16;41.94;93646.75;4972780;28;20654;-63
2023/03/27 03:23:46;;;;;;;11.00;8.37;;;;;;;10.21;41.79;93633.88;4967754;28;20275;-69
2023/03/27 03:26:12;;;;;;;15.50;8.83;;;;;;;10.36;41.60;93647.81;4971154;28;20188;-70
2023/03/27 03:28:38;;;;;;;13.25;8.30;;;;;;;10.44;41.51;93646.09;4971523;28;20252;-66
2023/03/27 03:31:04;;;;;;;11.80;8.10;;;;;;;10.49;40.99;93635.84;4968604;28;20301;-65
2023/03/27 03:33:30;;;;;;;12.63;8.45;;;;;;;10.59;40.64;93642.44;4968187;28;20228;-65
2023/03/27 03:36:00;;;;;;;12.07;8.93;;;;;;;10.53;40.85;93639.72;4997051;28;20227;-68
2023/03/27 03:38:30;;;;;;;12.65;8.73;;;;;;;10.60;40.86;93633.53;4972139;28;20196;-70
2023/03/27 03:40:58;;;;;;;12.10;8.13;;;;;;;10.63;40.73;93624.47;4967980;28;20228;-67
2023/03/27 03:43:29;;;;;;;10.68;7.68;;;;;;;10.63;40.73;93624.47;4968247;28;20236;-65
2023/03/27 03:45:55;;;;;;;12.10;8.38;;;;;;;10.47;40.92;93604.47;5001607;28;20232;-68
2023/03/27 03:48:21;;;;;;;11.43;8.45;;;;;;;10.28;41.71;93620.84;4972137;28;20282;-67
2023/03/27 03:50:48;;;;;;;14.40;8.88;;;;;;;10.33;41.48;93628.97;4965885;28;20228;-69
2023/03/27 03:53:16;;;;;;;15.13;9.00;;;;;;;10.33;41.59;93642.13;4970126;28;20196;-65
2023/03/27 03:55:42;;;;;;;12.63;7.53;;;;;;;10.16;41.71;93633.59;4971869;28;20477;-65
2023/03/27 03:58:08;;;;;;;12.97;8.50;;;;;;;10.26;41.22;93633.31;4964588;28;20275;-63
2023/03/27 04:00:37;;;;;;;11.43;7.40;;;;;;;10.31;40.83;93629.16;4984192;28;20236;-68
2023/03/27 04:03:04;;;;;;;11.10;7.33;;;;;;;10.38;40.78;93616.91;4970037;28;20228;-69
2023/03/27 04:05:30;;;;;;;12.20;7.73;;;;;;;10.30;40.54;93614.41;4968419;28;20192;-68
2023/03/27 04:07:58;;;;;;;7.80;6.60;;;;;;;10.14;40.85;93617.22;4972382;28;20192;-68
2023/03/27 04:10:24;;;;;;;10.25;7.25;;;;;;;9.93;41.37;93634.50;4971377;28;20220;-68
2023/03/27 04:12:50;;;;;;;13.07;8.25;;;;;;;9.97;41.76;93631.50;4969416;28;20287;-69
2023/03/27 04:15:16;;;;;;;11.10;8.43;;;;;;;10.09;41.46;93628.25;4969772;28;20253;-68
2023/03/27 04:17:42;;;;;;;12.73;7.63;;;;;;;10.12;41.29;93635.75;4969667;28;20192;-68
2023/03/27 04:20:08;;;;;;;9.87;7.10;;;;;;;10.03;41.35;93618.50;4967436;28;20224;-67
2023/03/27 04:22:36;;;;;;;12.40;7.17;;;;;;;10.26;40.97;93628.06;4968273;28;20306;-67
2023/03/27 04:25:06;;;;;;;14.10;6.97;;;;;;;9.39;43.20;93624.25;4963896;28;20227;-67
2023/03/27 04:27:34;;;;;;;9.93;7.10;;;;;;;9.66;42.31;93624.66;4970077;28;20235;-64
2023/03/27 04:30:01;;;;;;;11.05;7.10;;;;;;;9.48;43.07;93620.53;4969907;28;20224;-64
2023/03/27 04:32:27;;;;;;;9.50;6.95;;;;;;;9.87;42.32;93622.13;4999069;28;20219;-63
2023/03/27 04:34:53;;;;;;;11.55;7.30;;;;;;;10.03;41.67;93630.81;4969613;28;20323;-62
2023/03/27 04:37:19;;;;;;;16.00;8.37;;;;;;;10.14;41.71;93625.91;4983112;28;20236;-67
2023/03/27 04:39:45;;;;;;;8.73;7.27;;;;;;;10.14;41.47;93623.28;4971194;28;20259;-63
2023/03/27 04:42:14;;;;;;;13.10;7.63;;;;;;;10.26;41.59;93623.59;4967199;28;20326;-67
2023/03/27 04:44:40;;;;;;;11.60;7.50;;;;;;;10.28;41.53;93598.00;4965806;28;20271;-63
2023/03/27 04:47:06;;;;;;;14.68;7.38;;;;;;;10.42;40.84;93598.97;4961988;28;20215;-68
2023/03/27 04:49:37;;;;;;;13.67;7.97;;;;;;;10.48;40.75;93595.59;4969972;28;20232;-68
2023/03/27 04:52:04;;;;;;;19.10;7.93;;;;;;;10.57;40.54;93606.81;4995398;28;20359;-66
2023/03/27 04:54:30;;;;;;;14.25;7.65;;;;;;;10.68;40.21;93603.69;4968400;28;20224;-69
2023/03/27 04:56:56;;;;;;;15.13;7.50;;;;;;;10.60;40.24;93569.63;4969286;28;20224;-64
2023/03/27 04:59:21;;;;;;;13.77;7.75;;;;;;;10.79;40.39;93620.78;4965844;28;20205;-70
2023/03/27 05:01:46;;;;;;;11.38;7.03;;;;;;;10.77;40.27;93607.00;4966671;28;20220;-69
2023/03/27 05:04:13;;;;;;;13.07;7.20;;;;;;;10.75;40.29;93564.34;4964435;28;21109;-64
2023/03/27 05:06:39;;;;;;;9.57;7.28;;;;;;;10.88;39.74;93561.81;4992672;28;20231;-65
2023/03/27 05:09:04;;;;;;;9.95;6.63;;;;;;;10.81;40.31;93576.72;4966926;28;20229;-64
2023/03/27 05:11:30;;;;;;;12.70;6.72;;;;;;;10.43;40.57;93570.88;4969036;28;21064;-65
2023/03/27 05:13:55;;;;;;;9.45;7.15;;;;;;;10.47;40.53;93549.28;4968712;28;20275;-63
2023/03/27 05:16:21;;;;;;;12.60;6.70;;;;;;;10.76;40.42;93569.38;4964185;28;20243;-64
2023/03/27 05:18:46;;;;;;;13.93;6.03;;;;;;;10.67;39.53;93577.59;4968024;28;20241;-64
2023/03/27 05:21:12;;;;;;;13.50;5.50;;;;;;;10.19;40.26;93572.00;4983584;28;20727;-65
2023/03/27 05:23:37;;;;;;;14.50;6.73;;;;;;;10.22;39.87;93556.69;4965536;28;20196;-65
2023/03/27 05:26:03;;;;;;;12.93;6.40;;;;;;;10.29;41.37;93547.09;4995542;28;20188;-67
2023/03/27 05:28:29;;;;;;;9.90;5.47;;;;;;;10.50;39.60;93520.00;4963952;28;20335;-68
2023/03/27 05:30:55;;;;;;;12.68;6.20;;;;;;;10.72;38.73;93510.31;4967277;28;20306;-69
2023/03/27 05:33:21;;;;;;;8.32;5.18;;;;;;;11.03;38.21;93506.50;4971025;28;20232;-64
2023/03/27 05:35:48;;;;;;;9.13;4.73;;;;;;;11.22;37.80;93512.91;4964046;28;20188;-62
2023/03/27 05:38:14;;;;;;;7.70;4.43;;;;;;;11.32;37.06;93494.94;4950874;28;20207;-62
2023/03/27 05:40:40;;;;;;;6.88;4.85;;;;;;;11.53;36.32;93493.25;4963098;28;20233;-62
2023/03/27 05:43:06;;;;;;;7.55;4.47;;;;;;;11.65;35.84;93479.34;4968053;28;20236;-62
2023/03/27 05:45:32;;;;;;;6.25;4.05;;;;;;;11.69;35.59;93463.97;4965729;28;20220;-63
2023/03/27 05:48:00;;;;;;;11.00;4.65;;;;;;;11.89;34.80;93446.44;4975025;28;20219;-64
2023/03/27 05:50:28;;;;;;;9.13;4.60;;;;;;;12.01;34.94;93427.44;4971814;28;20239;-67
2023/03/27 05:53:04;;;;;;;10.07;5.22;;;;;;;12.16;35.00;93425.41;4971735;28;20254;-64
2023/03/27 05:55:30;;;;;;;10.52;5.32;;;;;;;12.24;34.30;93412.06;4992049;28;20733;-64
2023/03/27 05:57:55;;;;;;;8.80;5.00;;;;;;;12.41;34.58;93403.78;4997453;28;20283;-64
2023/03/27 06:00:25;;;;;;;8.02;5.00;;;;;;;12.38;34.22;93399.72;4967071;28;20252;-69
2023/03/27 06:02:55;;;;;;;7.72;4.68;;;;;;;12.54;33.82;93399.31;4996549;28;20230;-65
2023/03/27 06:05:21;;;;;;;5.72;4.82;;;;;;;12.60;33.67;93383.69;4967726;28;20276;-66
2023/03/27 06:07:47;;;;;;;7.25;4.65;;;;;;;12.55;33.76;93361.38;4997641;28;20315;-68
2023/03/27 06:10:19;;;;;;;7.32;4.90;;;;;;;12.58;33.50;93352.25;4968643;28;20676;-65
2023/03/27 06:12:45;;;;;;;7.22;4.47;;;;;;;12.35;34.11;93339.50;4964147;28;20223;-65
2023/03/27 06:15:11;;;;;;;6.15;4.03;;;;;;;12.45;33.51;93321.41;4996356;28;20228;-67
2023/03/27 06:17:39;;;;;;;6.13;3.88;;;;;;;12.61;33.40;93311.47;4969449;28;20210;-65
2023/03/27 06:20:11;;;;;;;7.57;4.75;;;;;;;12.53;33.43;93323.03;4983976;28;20212;-65
2023/03/27 06:22:48;;;;;;;6.93;4.65;;;;;;;12.75;33.79;93324.44;4967142;28;20216;-66
2023/03/27 06:25:15;;;;;;;12.82;5.60;;;;;;;12.63;34.19;93333.97;4968602;28;20231;-66
2023/03/27 06:27:41;;;;;;;6.28;4.20;;;;;;;12.61;33.84;93353.66;4978132;28;20236;-65
2023/03/27 06:30:08;;;;;;;5.70;3.58;;;;;;;12.72;33.20;93324.03;4968475;28;20274;-65
2023/03/27 06:32:35;;;;;;;5.63;3.13;;;;;;;13.06;33.15;93327.38;4969183;28;20195;-66
2023/03/27 06:35:01;;;;;;;3.25;2.65;;;;;;;12.50;33.72;93311.06;4992295;28;20189;-65
2023/03/27 06:37:27;;;;;;;3.60;2.85;;;;;;;12.52;34.27;93310.88;4968602;28;20719;-65
2023/03/27 06:39:53;;;;;;;2.92;2.42;;;;;;;12.73;33.99;93346.75;4969949;28;20251;-65
2023/03/27 06:42:19;;;;;;;5.15;3.60;;;;;;;12.84;33.78;93374.31;4966933;28;20291;-65
2023/03/27 06:44:44;;;;;;;5.65;3.22;;;;;;;12.79;34.01;93370.47;4967349;28;20192;-65
2023/03/27 06:47:10;;;;;;;4.63;3.42;;;;;;;12.75;34.20;93358.72;4964386;28;20232;-64
2023/03/27 06:49:36;;;;;;;7.75;3.38;;;;;;;12.69;34.15;93345.53;4964051;28;20240;-65
2023/03/27 06:52:01;;;;;;;5.10;2.70;;;;;;;12.97;34.35;93355.84;4970010;28;20279;-67
2023/03/27 06:54:28;;;;;;;2.90;2.30;;;;;;;13.03;34.55;93368.19;4968274;28;20231;-64
2023/03/27 06:56:53;;;;;;;6.88;2.75;;;;;;;13.07;34.35;93344.84;4966070;28;20216;-65
2023/03/27 06:59:19;;;;;;;3.20;2.17;;;;;;;13.15;33.59;93363.91;4995435;28;20212;-66
2023/03/27 07:01:45;;;;;;;4.78;2.03;;;;;;;13.15;33.32;93369.19;4967749;28;20232;-64
2023/03/27 07:04:11;;;;;;;5.32;2.35;;;;;;;13.36;33.15;93365.47;4970810;28;20234;-64
2023/03/27 07:06:36;;;;;;;4.38;2.35;;;;;;;13.44;33.71;93375.81;4968917;28;20228;-64
2023/03/27 07:09:02;;;;;;;7.25;2.53;;;;;;;13.52;33.94;93368.66;4994593;28;20223;-64
2023/03/27 07:11:27;;;;;;;5.25;2.38;;;;;;;13.56;33.99;93349.56;4968814;28;20298;-65
2023/03/27 07:13:53;;;;;;;3.17;2.08;;;;;;;13.84;33.85;93346.53;4965222;28;20771;-63
2023/03/27 07:16:18;;;;;;;5.82;2.38;;;;;;;13.99;33.28;93348.91;4963930;28;20274;-65
2023/03/27 07:18:44;;;;;;;2.58;1.98;;;;;;;14.17;33.32;93352.66;4972644;28;20239;-65
2023/03/27 07:21:11;;;;;;;4.60;2.03;;;;;;;14.43;32.63;93349.78;4973574;28;20314;-65
2023/03/27 07:23:37;;;;;;;2.10;1.90;;;;;;;14.53;32.26;93338.75;4972279;28;20350;-65
2023/03/27 07:26:02;;;;;;;4.38;2.60;;;;;;;14.72;32.09;93332.47;4967461;28;20272;-65
2023/03/27 07:28:28;;;;;;;5.82;3.03;;;;;;;14.79;31.87;93343.00;4996963;28;20235;-65
2023/03/27 07:30:54;;;;;;;3.90;2.35;;;;;;;14.97;31.25;93371.34;4966531;28;20302;-65
2023/03/27 07:33:20;;;;;;;3.75;2.30;;;;;;;14.95;31.30;93363.59;4970917;28;20240;-65
2023/03/27 07:35:49;;;;;;;2.33;2.13;;;;;;;15.02;30.93;93360.06;4964181;28;20192;-64
2023/03/27 07:38:15;;;;;;;5.03;2.20;;;;;;;15.09;30.80;93368.78;4963968;28;20176;-64
2023/03/27 07:40:42;;;;;;;3.15;2.22;;;;;;;15.08;30.45;93348.63;4968739;28;20221;-65
2023/03/27 07:43:08;;;;;;;2.85;1.90;;;;;;;14.94;30.68;93348.78;4968824;28;20216;-64
2023/03/27 07:45:34;;;;;;;3.33;1.98;;;;;;;15.03;30.70;93344.00;4969264;28;20255;-64
2023/03/27 07:48:05;;;;;;;3.70;1.70;;;;;;;14.86;30.64;93340.28;4970849;28;20223;-63
2023/03/27 07:50:31;;;;;;;2.95;2.10;;;;;;;14.98;30.59;93357.88;4997686;28;20241;-64
2023/03/27 07:52:58;;;;;;;2.75;1.90;;;;;;;15.06;30.52;93350.69;5003086;28;20195;-68
2023/03/27 07:55:26;;;;;;;4.68;2.30;;;;;;;15.00;30.64;93361.13;4969744;28;20221;-67
2023/03/27 07:57:53;;;;;;;3.83;1.98;;;;;;;14.99;30.73;93348.91;5001636;28;20223;-67
2023/03/27 08:00:21;;;;;;;3.63;2.47;;;;;;;15.08;30.74;93360.03;4972045;28;20236;-68
2023/03/27 08:02:49;;;;;;;3.40;2.10;;;;;;;15.20;30.58;93347.66;4969214;28;20180;-68
2023/03/27 08:05:15;;;;;;;6.10;2.38;;;;;;;15.21;30.75;93337.91;4970449;28;20566;-68
2023/03/27 08:07:41;;;;;;;4.13;2.88;;;;;;;15.29;30.65;93321.72;5002730;28;20231;-70
2023/03/27 08:10:08;;;;;;;5.68;2.70;;;;;;;15.35;30.13;93310.22;4965979;28;20230;-69
2023/03/27 08:12:34;;;;;;;3.58;3.15;;;;;;;15.41;30.47;93308.53;4973334;28;20228;-69
2023/03/27 08:15:01;;;;;;;4.18;2.65;;;;;;;15.42;30.73;93313.59;4970288;28;20303;-69
2023/03/27 08:17:28;;;;;;;4.35;2.92;;;;;;;15.43;30.29;93322.34;4981380;28;20622;-70
2023/03/27 08:19:54;;;;;;;5.28;4.60;;;;;;;15.55;30.24;93309.97;4970451;28;20232;-69
2023/03/27 08:22:20;;;;;;;8.52;4.93;;;;;;;15.64;30.02;93291.94;4984222;28;20243;-70
2023/03/27 08:24:46;;;;;;;6.45;4.00;;;;;;;15.70;30.12;93293.69;4968941;28;20241;-69
2023/03/27 08:27:12;;;;;;;5.60;3.80;;;;;;;15.79;30.74;93307.44;4968361;28;20224;-69
2023/03/27 08:29:38;;;;;;;6.75;2.50;;;;;;;15.62;30.98;93292.13;4969324;28;20263;-68
2023/03/27 08:32:04;;;;;;;7.90;2.70;;;;;;;15.66;31.08;93303.09;4973107;28;20180;-70
2023/03/27 08:34:30;;;;;;;4.47;2.85;;;;;;;15.70;31.59;93284.94;4965124;28;20247;-71
2023/03/27 08:36:55;;;;;;;8.77;3.10;;;;;;;15.67;31.55;93288.81;4969450;28;20239;-69
2023/03/27 08:39:23;;;;;;;3.22;2.67;;;;;;;15.90;31.16;93284.66;4995260;28;20266;-68
2023/03/27 08:41:57;;;;;;;7.10;3.17;;;;;;;15.42;32.47;93295.06;4969074;28;20280;-70
2023/03/27 08:44:25;;;;;;;5.38;2.80;;;;;;;15.47;31.85;93325.34;4964817;28;20288;-71
2023/03/27 08:47:09;;;;;;;4.60;2.70;;;;;;;15.51;32.30;93351.19;4963030;28;20253;-69
2023/03/27 08:49:40;;;;;;;3.08;2.78;;;;;;;15.11;32.38;93348.19;4970705;28;20286;-70
2023/03/27 08:52:15;;;;;;;5.70;2.85;;;;;;;15.21;33.23;93351.13;4998662;28;20298;-68
2023/03/27 08:54:50;;;;;;;6.35;2.47;;;;;;;15.22;34.56;93311.19;4975651;28;20231;-69
2023/03/27 08:57:21;;;;;;;5.90;3.20;;;;;;;15.22;35.06;93274.13;4964731;28;20246;-70
2023/03/27 08:59:47;;;;;;;4.68;2.67;;;;;;;15.27;35.91;93252.28;4961236;28;20207;-68
2023/03/27 09:02:15;;;;;;;2.78;1.98;;;;;;;15.47;33.39;93238.75;4995025;28;20188;-69
2023/03/27 09:04:47;;;;;;;7.00;3.05;;;;;;;15.47;32.58;93236.09;4967069;28;20649;-68
2023/03/27 09:07:39;;;;;;;5.80;3.03;;;;;;;15.44;32.16;93233.91;4999347;28;20228;-68
2023/03/27 09:10:11;;;;;;;9.00;3.47;;;;;;;15.69;32.44;93244.41;4959765;28;20347;-66
2023/03/27 09:12:56;;;;;;;9.75;3.40;;;;;;;15.79;32.06;93260.53;4980988;28;20228;-69
2023/03/27 09:15:24;;;;;;;4.15;2.63;;;;;;;16.22;31.63;93256.00;4965681;28;20234;-68
2023/03/27 09:18:03;;;;;;;4.75;2.63;;;;;;;16.31;30.42;93250.13;4963215;28;20260;-69
2023/03/27 09:20:48;;;;;;;3.53;1.95;;;;;;;16.57;29.93;93263.97;4970865;28;20256;-69
2023/03/27 09:23:26;;;;;;;3.72;2.53;;;;;;;16.71;30.17;93272.53;4963112;28;20204;-70
2023/03/27 09:26:07;;;;;;;3.70;2.00;;;;;;;16.28;32.94;93292.25;4969939;28;20224;-69
2023/03/27 09:28:44;;;;;;;5.75;2.78;;;;;;;16.09;33.93;93304.75;4983354;28;20217;-66
2023/03/27 09:31:19;;;;;;;4.78;1.80;;;;;;;15.93;33.17;93310.69;4960996;28;20228;-66
2023/03/27 09:33:45;;;;;;;6.75;2.25;;;;;;;15.86;33.82;93308.16;4984464;28;20232;-66
2023/03/27 09:36:10;;;;;;;4.00;2.03;;;;;;;15.72;33.69;93306.75;4966863;28;20235;-66
2023/03/27 09:38:40;;;;;;;3.08;1.83;;;;;;;15.74;34.01;93299.34;4967894;28;20243;-65
2023/03/27 09:41:45;;;;;;;4.40;1.98;;;;;;;15.83;33.21;93290.06;4968194;28;20209;-66
2023/03/27 09:44:11;;;;;;;2.53;1.90;;;;;;;15.83;33.07;93282.91;4946088;28;20243;-66
2023/03/27 09:46:42;;;;;;;2.78;1.98;;;;;;;15.88;33.65;93269.78;4956150;28;20258;-66
2023/03/27 09:49:18;;;;;;;3.67;2.22;;;;;;;15.84;33.80;93287.16;4968287;28;20231;-68
2023/03/27 09:51:45;;;;;;;4.68;1.95;;;;;;;15.78;33.75;93269.53;4966301;28;20227;-68
2023/03/27 09:54:13;;;;;;;4.60;2.60;;;;;;;15.96;34.17;93263.34;4967291;28;20287;-68
2023/03/27 09:56:42;;;;;;;2.90;2.40;;;;;;;16.03;34.09;93236.72;4955697;28;20189;-64
2023/03/27 09:59:18;;;;;;;2.85;2.13;;;;;;;16.16;34.22;93233.88;4966853;28;20204;-64
2023/03/27 10:01:48;;;;;;;4.07;2.05;;;;;;;15.87;33.65;93252.25;4960935;28;20281;-64
2023/03/27 10:04:17;;;;;;;5.10;2.35;;;;;;;15.86;33.90;93245.34;4952591;28;20251;-63
2023/03/27 10:06:47;;;;;;;4.00;2.47;;;;;;;15.94;34.30;93262.78;4952375;28;20314;-64
2023/03/27 10:09:18;;;;;;;4.80;2.65;;;;;;;16.23;32.67;93263.75;4972873;28;20228;-63
2023/03/27 10:11:43;;;;;;;2.63;2.33;;;;;;;15.85;33.87;93285.31;4963302;28;20180;-64
2023/03/27 10:14:15;;;;;;;3.38;2.35;;;;;;;15.81;33.73;93295.56;4961956;28;20342;-63
2023/03/27 10:16:41;;;;;;;4.15;2.30;;;;;;;15.56;35.10;93293.03;4947462;28;20224;-63
2023/03/27 10:19:34;;;;;;;3.30;1.80;;;;;;;15.41;34.97;93301.38;4954111;28;20228;-67
2023/03/27 10:22:08;;;;;;;2.83;2.33;;;;;;;15.30;36.74;93312.72;4888119;29;20313;-67
2023/03/27 10:24:35;;;;;;;3.15;2.25;;;;;;;15.11;36.73;93306.63;4909755;29;20236;-64
2023/03/27 10:27:06;;;;;;;2.08;1.95;;;;;;;15.03;37.74;93285.75;4908542;29;20241;-64
2023/03/27 10:29:34;;;;;;;3.63;2.20;;;;;;;15.12;38.75;93283.63;4889984;29;20193;-65
2023/03/27 10:32:02;;;;;;;2.15;1.95;;;;;;;15.26;36.96;93269.16;4893983;29;20191;-66
2023/03/27 10:34:36;;;;;;;2.58;2.35;;;;;;;15.35;37.19;93267.84;4886247;29;20270;-68
2023/03/27 10:37:18;;;;;;;3.50;2.05;;;;;;;15.65;36.63;93257.25;4891831;29;20475;-67
2023/03/27 10:39:44;;;;;;;3.95;2.17;;;;;;;15.90;35.54;93253.66;4893311;29;20351;-72
2023/03/27 10:42:13;;;;;;;2.63;2.22;;;;;;;16.06;35.60;93249.53;4893405;29;20245;-71
2023/03/27 10:44:39;;;;;;;4.57;2.58;;;;;;;16.15;35.94;93234.13;4909073;29;20299;-71
2023/03/27 10:47:15;;;;;;;4.20;3.00;;;;;;;16.39;35.80;93217.16;4895030;29;21043;-68
2023/03/27 10:49:51;;;;;;;3.65;2.63;;;;;;;16.39;34.55;93197.78;4910818;29;20236;-67
2023/03/27 10:52:30;;;;;;;3.15;2.40;;;;;;;16.40;34.69;93194.09;4894354;29;20225;-66
2023/03/27 10:55:16;;;;;;;3.20;1.80;;;;;;;16.21;34.72;93177.50;4910833;29;20266;-67
2023/03/27 10:57:50;;;;;;;2.63;1.95;;;;;;;16.36;35.01;93169.06;4910738;29;20241;-65
2023/03/27 11:00:31;;;;;;;4.13;2.22;;;;;;;16.66;34.40;93167.06;4951049;28;20314;-68
2023/03/27 11:03:02;;;;;;;3.75;2.30;;;;;;;16.75;33.45;93170.94;4968200;28;20212;-67
2023/03/27 11:05:34;;;;;;;4.82;2.83;;;;;;;16.84;32.75;93178.56;4976933;28;20204;-65
2023/03/27 11:08:09;;;;;;;6.93;2.40;;;;;;;16.94;32.29;93173.47;4965411;28;20177;-67
2023/03/27 11:10:46;;;;;;;3.28;2.40;;;;;;;17.04;32.47;93168.38;5000360;28;20220;-67
2023/03/27 11:13:25;;;;;;;3.35;2.30;;;;;;;17.13;31.86;93168.78;4965620;28;20259;-66
2023/03/27 11:16:10;;;;;;;3.25;2.20;;;;;;;17.09;31.49;93196.88;4965456;28;20640;-66
2023/03/27 11:18:39;;;;;;;2.67;2.20;;;;;;;17.05;31.73;93219.63;4961697;28;20290;-67
2023/03/27 11:21:14;;;;;;;3.60;2.55;;;;;;;16.89;32.74;93229.94;4963134;28;20279;-69
2023/03/27 11:23:51;;;;;;;4.75;2.50;;;;;;;16.59;35.12;93230.06;4966675;28;20184;-67
2023/03/27 11:26:22;;;;;;;7.15;2.50;;;;;;;16.44;36.69;93266.84;4970318;28;20188;-68
2023/03/27 11:28:56;;;;;;;3.88;2.47;;;;;;;16.26;38.08;93275.75;4970786;28;20228;-67
2023/03/27 11:31:31;;;;;;;3.25;2.10;;;;;;;16.02;39.64;93273.03;4965726;28;20278;-68
2023/03/27 11:34:24;;;;;;;3.97;2.10;;;;;;;15.93;41.15;93269.13;4967264;28;20224;-67
2023/03/27 11:37:14;;;;;;;2.53;2.33;;;;;;;15.89;43.12;93270.59;4967560;28;20244;-68
2023/03/27 11:40:01;;;;;;;2.30;2.10;;;;;;;15.87;43.33;93270.81;4997597;28;20335;-68
2023/03/27 11:42:31;;;;;;;2.30;2.03;;;;;;;15.87;43.93;93272.66;4982696;28;20232;-67
2023/03/27 11:44:57;;;;;;;4.05;2.17;;;;;;;15.77;43.28;93275.88;5000560;28;20228;-65
2023/03/27 11:47:47;;;;;;;2.13;1.60;;;;;;;15.60;44.56;93285.44;5002663;28;20195;-68